tititudorancea.com
Station Historical Data
Daily Summary for March 12, 2018 Units:  Metric    English   Both
« Previous Day
Next Day »
Daily Weekly Monthly Yearly Custom
  High: Low: Average:
Temperature: -17.8 °C 10.4 °C 14.9 °C
Dew Point: -17.8 °C 7.5 °C 8.5 °C
Humidity: Humidity % 47 % 66 %
Wind Speed: 0 km/h 4.7 km/h 15.6 km/h
Wind Gust: 0 km/h - -
Wind:- - SSW
Pressure: 0 hPa 1020.5 hPa -
Precipitation: 0 mm    
Historical Graphs
 
 
Ararat weather Find more about Weather in Ararat, AU


 



 


Tabular Data for March 12, 2018
Time Temperature Dew Point Pressure Wind Wind Speed Wind Gust Humidity Rainfall Rate (Hourly)
-17.8 °C -17.8 °C 0 hPa Calm     Humidity % 0 mm
00:00 10.6 °C 7.7 °C 1022.9 hPa North 7.1 km/h 11.1 km/h 82 % 0 mm
00:05 10.6 °C 7.7 °C 1022.9 hPa North 7.2 km/h 13 km/h 82 % 0 mm
00:10 10.6 °C 7.7 °C 1022.9 hPa South 12.2 km/h 18.5 km/h 82 % 0 mm
00:15 10.7 °C 7.8 °C 1022.9 hPa South 7.9 km/h 14.8 km/h 82 % 0 mm
00:20 10.7 °C 7.8 °C 1022.9 hPa South 12.6 km/h 16.7 km/h 82 % 0 mm
00:25 10.7 °C 7.8 °C 1022.9 hPa North 10.9 km/h 16.7 km/h 82 % 0 mm
00:30 10.7 °C 7.7 °C 1022.9 hPa South 9.2 km/h 13 km/h 82 % 0 mm
00:35 10.6 °C 7.7 °C 1022.9 hPa North 8.2 km/h 13 km/h 82 % 0 mm
00:40 10.6 °C 7.6 °C 1022.9 hPa South 7.2 km/h 13 km/h 82 % 0 mm
00:45 10.6 °C 7.8 °C 1022.9 hPa South 11.9 km/h 16.7 km/h 83 % 0 mm
00:50 10.6 °C 7.8 °C 1022.9 hPa South 12.7 km/h 20.4 km/h 83 % 0 mm
00:56 10.7 °C 7.7 °C 1022.9 hPa South 13.2 km/h 18.5 km/h 82 % 0 mm
01:01 10.7 °C 7.8 °C 1022.6 hPa South 15.3 km/h 18.5 km/h 82 % 0 mm
01:06 10.7 °C 7.8 °C 1022.6 hPa South 12.9 km/h 20.4 km/h 82 % 0 mm
01:11 10.7 °C 7.8 °C 1022.9 hPa North 9.5 km/h 16.7 km/h 82 % 0 mm
01:16 10.7 °C 7.8 °C 1022.6 hPa South 13 km/h 22.2 km/h 82 % 0 mm
01:21 10.7 °C 7.8 °C 1022.6 hPa South 5.6 km/h 14.8 km/h 82 % 0 mm
01:26 10.6 °C 7.7 °C 1022.6 hPa North 8.2 km/h 16.7 km/h 82 % 0 mm
01:31 10.5 °C 7.6 °C 1022.6 hPa North 9.2 km/h 14.8 km/h 82 % 0 mm
01:36 10.4 °C 7.5 °C 1022.6 hPa South 8.4 km/h 14.8 km/h 82 % 0 mm
01:41 10.5 °C 7.6 °C 1022.6 hPa North 14.2 km/h 22.5 km/h 82 % 0 mm
01:46 10.8 °C 7.9 °C 1022.6 hPa South 11.7 km/h 16.7 km/h 82 % 0 mm
01:51 11.3 °C 8.2 °C 1022.6 hPa South 17.4 km/h 25.9 km/h 81 % 0 mm
01:56 11.9 °C 8.3 °C 1022.6 hPa North 8.7 km/h 14.8 km/h 79 % 0 mm
02:01 12.1 °C 8.2 °C 1022.6 hPa SSW 19.3 km/h 38.6 km/h 77 % 0 mm
02:06 12.3 °C 8.2 °C 1022.2 hPa South 11.3 km/h 18.5 km/h 76 % 0 mm
02:11 12.4 °C 8.3 °C 1022.2 hPa SSE 21.1 km/h 31.5 km/h 76 % 0 mm
02:16 12.4 °C 8.1 °C 1022.2 hPa North 17.5 km/h 29.6 km/h 75 % 0 mm
02:21 12.4 °C 8.5 °C 1022.2 hPa South 19 km/h 29.6 km/h 77 % 0 mm
02:26 12.4 °C 7.9 °C 1022.2 hPa North 15.1 km/h 24.1 km/h 74 % 0 mm
02:31 12.5 °C 8 °C 1022.2 hPa SSW 19.2 km/h 29.6 km/h 74 % 0 mm
02:36 12.5 °C 8 °C 1022.2 hPa SSE 11.3 km/h 22.5 km/h 74 % 0 mm
02:41 12.5 °C 8 °C 1021.9 hPa SSE 19.2 km/h 24.1 km/h 74 % 0 mm
02:46 12.6 °C 8.1 °C 1021.9 hPa North 15 km/h 18.5 km/h 74 % 0 mm
02:51 12.6 °C 8.1 °C 1021.9 hPa South 12.7 km/h 16.7 km/h 74 % 0 mm
02:56 12.6 °C 8.1 °C 1021.9 hPa South 17.1 km/h 24.1 km/h 74 % 0 mm
03:01 12.6 °C 8.1 °C 1021.9 hPa SSW 20.8 km/h 33.3 km/h 74 % 0 mm
03:06 12.7 °C 8.2 °C 1021.9 hPa North 17.2 km/h 22.5 km/h 74 % 0 mm
03:11 12.7 °C 8.2 °C 1021.9 hPa South 20.3 km/h 24.1 km/h 74 % 0 mm
03:16 12.7 °C 8.2 °C 1021.9 hPa SSE 13.5 km/h 24.1 km/h 74 % 0 mm
03:21 12.7 °C 8.2 °C 1021.6 hPa SSW 15.4 km/h 20.4 km/h 74 % 0 mm
03:26 12.8 °C 8.3 °C 1021.6 hPa North 11.7 km/h 18.5 km/h 74 % 0 mm
03:31 12.8 °C 8.3 °C 1021.6 hPa South 7.7 km/h 14.8 km/h 74 % 0 mm
03:36 12.8 °C 8.3 °C 1021.6 hPa North 24.9 km/h 37 km/h 74 % 0 mm
03:41 12.9 °C 8.4 °C 1021.6 hPa South 15.6 km/h 29.6 km/h 74 % 0 mm
03:46 12.9 °C 8.4 °C 1021.6 hPa SSE 12.6 km/h 18.5 km/h 74 % 0 mm
03:51 12.9 °C 8.4 °C 1021.6 hPa South 9.8 km/h 18.5 km/h 74 % 0 mm
03:56 13 °C 8.4 °C 1021.6 hPa SSE 15.1 km/h 29.6 km/h 74 % 0 mm
04:01 13 °C 8.4 °C 1021.6 hPa SSE 15.4 km/h 29.6 km/h 74 % 0 mm
04:06 13 °C 8.4 °C 1021.6 hPa North 13 km/h 18.5 km/h 74 % 0 mm
04:11 13 °C 8.4 °C 1021.2 hPa South 10.6 km/h 20.4 km/h 74 % 0 mm
04:16 13 °C 8.4 °C 1021.2 hPa North 21.6 km/h 31.5 km/h 74 % 0 mm
04:21 13 °C 8.4 °C 1021.2 hPa South 22.4 km/h 31.5 km/h 74 % 0 mm
04:26 13.1 °C 8.7 °C 1021.2 hPa South 18 km/h 22.2 km/h 75 % 0 mm
04:31 13.1 °C 8.7 °C 1021.2 hPa South 13.4 km/h 18.5 km/h 75 % 0 mm
04:36 13.1 °C 8.8 °C 1021.2 hPa North 9.3 km/h 16.7 km/h 75 % 0 mm
04:41 13.1 °C 8.5 °C 1020.9 hPa South 9.5 km/h 16.7 km/h 74 % 0 mm
04:46 13 °C 8.4 °C 1021.2 hPa North 13.8 km/h 22.2 km/h 74 % 0 mm
04:51 13 °C 8.4 °C 1021.2 hPa SSE 22.9 km/h 33.3 km/h 74 % 0 mm
04:56 12.9 °C 8.4 °C 1021.2 hPa SSW 17.4 km/h 24.1 km/h 74 % 0 mm
05:01 12.8 °C 8.3 °C 1020.9 hPa North 19 km/h 29.6 km/h 74 % 0 mm
05:06 12.8 °C 8.3 °C 1021.2 hPa South 13.7 km/h 18.5 km/h 74 % 0 mm
05:11 12.8 °C 8.3 °C 1021.2 hPa South 11.6 km/h 18.5 km/h 74 % 0 mm
05:16 12.8 °C 8.3 °C 1021.2 hPa South 15.3 km/h 18.5 km/h 74 % 0 mm
05:21 12.7 °C 8 °C 1021.6 hPa SSW 13.7 km/h 25.9 km/h 73 % 0 mm
05:26 12.6 °C 7.9 °C 1021.6 hPa North 19.2 km/h 27.8 km/h 73 % 0 mm
05:31 12.4 °C 7.7 °C 1021.6 hPa North 12.7 km/h 27.8 km/h 73 % 0 mm
05:36 12.3 °C 7.6 °C 1021.2 hPa South 21.1 km/h 29.6 km/h 73 % 0 mm
05:41 12.3 °C 7.6 °C 1021.2 hPa South 18.7 km/h 29.6 km/h 73 % 0 mm
05:46 12.3 °C 7.6 °C 1021.2 hPa South 13.7 km/h 24.1 km/h 73 % 0 mm
05:51 12.3 °C 7.8 °C 1021.2 hPa South 8.7 km/h 14.8 km/h 74 % 0 mm
05:56 12.4 °C 7.9 °C 1021.2 hPa South 11.7 km/h 22.2 km/h 74 % 0 mm
06:01 12.4 °C 7.9 °C 1021.2 hPa SSE 12.4 km/h 18.5 km/h 74 % 0 mm
06:06 12.4 °C 7.9 °C 1021.2 hPa South 12.4 km/h 18.5 km/h 74 % 0 mm
06:11 12.4 °C 7.9 °C 1021.2 hPa SSE 13.4 km/h 24.1 km/h 74 % 0 mm
06:16 12.4 °C 7.9 °C 1021.2 hPa South 15.1 km/h 25.9 km/h 74 % 0 mm
06:21 12.4 °C 8.3 °C 1021.2 hPa South 8.5 km/h 18.5 km/h 76 % 0 mm
06:26 12.5 °C 8 °C 1021.2 hPa North 9 km/h 16.7 km/h 74 % 0 mm
06:31 12.5 °C 8 °C 1021.2 hPa North 11.3 km/h 18.5 km/h 74 % 0 mm
06:36 12.5 °C 8 °C 1021.2 hPa SSE 10.3 km/h 16.7 km/h 74 % 0 mm
06:41 12.4 °C 7.9 °C 1021.2 hPa SSE 11.9 km/h 18.5 km/h 74 % 0 mm
06:46 12.4 °C 7.9 °C 1021.6 hPa SSW 18.7 km/h 24.1 km/h 74 % 0 mm
06:51 12.3 °C 7.8 °C 1021.6 hPa South 14.8 km/h 19.3 km/h 74 % 0 mm
06:56 12.3 °C 7.8 °C 1021.6 hPa South 13.4 km/h 25.9 km/h 74 % 0 mm
07:01 12.3 °C 7.8 °C 1021.6 hPa SSE 13 km/h 25.9 km/h 74 % 0 mm
07:06 12.4 °C 7.9 °C 1021.6 hPa SSE 15.8 km/h 31.5 km/h 74 % 0 mm
07:11 12.4 °C 7.9 °C 1021.6 hPa SSE 18 km/h 20.4 km/h 74 % 0 mm
07:16 12.4 °C 7.9 °C 1021.6 hPa South 19.8 km/h 27.8 km/h 74 % 0 mm
07:21 12.5 °C 8 °C 1021.6 hPa South 14.3 km/h 20.4 km/h 74 % 0 mm
07:26 12.5 °C 8 °C 1021.6 hPa South 15.4 km/h 24.1 km/h 74 % 0 mm
07:31 12.6 °C 8.1 °C 1021.6 hPa South 15.9 km/h 22.2 km/h 74 % 0 mm
07:36 12.6 °C 8.1 °C 1021.6 hPa South 10.6 km/h 14.8 km/h 74 % 0 mm
07:41 12.6 °C 8.1 °C 1021.6 hPa SSE 10.5 km/h 16.7 km/h 74 % 0 mm
07:46 12.6 °C 8.1 °C 1021.6 hPa North 16.6 km/h 24.1 km/h 74 % 0 mm
07:51 12.6 °C 8.1 °C 1021.6 hPa South 14 km/h 31.5 km/h 74 % 0 mm
07:56 12.6 °C 8.1 °C 1021.6 hPa North 14 km/h 25.9 km/h 74 % 0 mm
08:01 12.7 °C 8.2 °C 1021.9 hPa North 14.8 km/h 16.7 km/h 74 % 0 mm
08:06 12.7 °C 8.2 °C 1021.9 hPa South 17.2 km/h 24.1 km/h 74 % 0 mm
08:11 12.8 °C 8.3 °C 1021.9 hPa SSE 15 km/h 22.2 km/h 74 % 0 mm
08:16 12.9 °C 8.4 °C 1021.9 hPa South 13.8 km/h 20.4 km/h 74 % 0 mm
08:21 13 °C 8.4 °C 1021.9 hPa South 13.8 km/h 20.9 km/h 74 % 0 mm
08:26 13 °C 8.4 °C 1022.2 hPa SSW 20.6 km/h 31.5 km/h 74 % 0 mm
08:31 13 °C 8.4 °C 1022.2 hPa South 14.2 km/h 31.5 km/h 74 % 0 mm
08:36 13.1 °C 8.6 °C 1022.2 hPa SSE 9 km/h 22.2 km/h 74 % 0 mm
08:41 13.2 °C 8.7 °C 1022.2 hPa North 17.7 km/h 24.1 km/h 74 % 0 mm
08:46 13.2 °C 8.5 °C 1022.2 hPa South 12.2 km/h 31.5 km/h 73 % 0 mm
08:51 13.2 °C 8.5 °C 1022.6 hPa SSE 19.5 km/h 31.5 km/h 73 % 0 mm
08:56 13.3 °C 8.6 °C 1022.6 hPa SSE 11.1 km/h 18.5 km/h 73 % 0 mm
09:01 13.4 °C 8.4 °C 1022.6 hPa South 19 km/h 31.5 km/h 72 % 0 mm
09:06 13.5 °C 8.6 °C 1022.6 hPa SSE 18.5 km/h 24.1 km/h 72 % 0 mm
09:11 13.6 °C 8.4 °C 1022.9 hPa South 14.3 km/h 18.5 km/h 71 % 0 mm
09:16 13.9 °C 8.7 °C 1022.9 hPa South 7.9 km/h 22.2 km/h 71 % 0 mm
09:21 14.1 °C 8.4 °C 1022.9 hPa South 19 km/h 33.3 km/h 69 % 0 mm
09:26 14 °C 8.4 °C 1022.9 hPa South 17.2 km/h 38.9 km/h 69 % 0 mm
09:31 13.8 °C 8.2 °C 1022.9 hPa SSE 16.3 km/h 24.1 km/h 69 % 0 mm
09:36 13.7 °C 8.1 °C 1022.9 hPa South 17.1 km/h 33.3 km/h 69 % 0 mm
09:41 13.6 °C 8 °C 1022.9 hPa South 23 km/h 31.5 km/h 69 % 0 mm
09:46 13.7 °C 8.3 °C 1022.9 hPa SSE 14.2 km/h 24.1 km/h 70 % 0 mm
09:51 14.1 °C 8.7 °C 1022.9 hPa SSE 15.8 km/h 25.9 km/h 70 % 0 mm
09:56 14.3 °C 8.7 °C 1022.9 hPa South 16.1 km/h 20.9 km/h 69 % 0 mm
10:01 14.4 °C 8.6 °C 1022.9 hPa SSW 25.1 km/h 27.8 km/h 68 % 0 mm
10:06 14.6 °C 8.6 °C 1022.9 hPa South 17.2 km/h 31.5 km/h 67 % 0 mm
10:11 14.5 °C 8.7 °C 1022.9 hPa South 16.7 km/h 22.2 km/h 68 % 0 mm
10:16 14.5 °C 8.7 °C 1022.9 hPa South 23.3 km/h 35.2 km/h 68 % 0 mm
10:21 14.6 °C 8.7 °C 1022.9 hPa SSW 17.5 km/h 18.5 km/h 68 % 0 mm
10:26 14.6 °C 8.5 °C 1022.9 hPa SSW 16.6 km/h 24.1 km/h 67 % 0 mm
10:31 14.7 °C 8.8 °C 1022.9 hPa South 14.2 km/h 27.4 km/h 68 % 0 mm
10:36 14.8 °C 8.8 °C 1022.9 hPa South 20.8 km/h 30.6 km/h 67 % 0 mm
10:41 14.7 °C 8.7 °C 1023.2 hPa South 22.4 km/h 30.6 km/h 67 % 0 mm
10:46 14.9 °C 9.1 °C 1022.9 hPa South 17.5 km/h 27.8 km/h 68 % 0 mm
10:51 15.3 °C 9.2 °C 1023.2 hPa North 18.3 km/h 29 km/h 67 % 0 mm
10:56 15.4 °C 9.1 °C 1022.9 hPa SSW 17.7 km/h 25.7 km/h 66 % 0 mm
11:01 15.6 °C 9.1 °C 1022.9 hPa South 16.9 km/h 24.1 km/h 65 % 0 mm
11:06 15.7 °C 9.2 °C 1022.9 hPa SSE 13.8 km/h 25.9 km/h 65 % 0 mm
11:11 16.3 °C 9.3 °C 1023.2 hPa South 16.7 km/h 29.6 km/h 63 % 0 mm
11:16 16.1 °C 9.1 °C 1023.2 hPa SSE 15 km/h 31.5 km/h 63 % 0 mm
11:21 16.4 °C 9.1 °C 1023.2 hPa SSE 19 km/h 31.5 km/h 62 % 0 mm
11:26 16.7 °C 9.2 °C 1023.2 hPa South 21.1 km/h 38.9 km/h 61 % 0 mm
11:32 16.8 °C 9.2 °C 1022.9 hPa South 15.1 km/h 31.5 km/h 61 % 0 mm
11:37 16.9 °C 9.1 °C 1022.9 hPa South 22.2 km/h 30.6 km/h 60 % 0 mm
11:42 16.8 °C 9.2 °C 1022.9 hPa North 23 km/h 29.6 km/h 61 % 0 mm
11:47 16.8 °C 8.9 °C 1022.9 hPa SSE 12.9 km/h 31.5 km/h 60 % 0 mm
11:52 17.1 °C 9.1 °C 1022.9 hPa South 24.3 km/h 33.3 km/h 59 % 0 mm
11:57 16.9 °C 9.1 °C 1022.9 hPa SW 20.8 km/h 31.5 km/h 60 % 0 mm
12:02 16.9 °C 9.1 °C 1022.9 hPa South 20.1 km/h 31.5 km/h 60 % 0 mm
12:07 17.4 °C 9.1 °C 1022.9 hPa SSE 15.9 km/h 25.9 km/h 58 % 0 mm
12:12 17.6 °C 9.2 °C 1022.6 hPa North 25.1 km/h 33.3 km/h 58 % 0 mm
12:17 17.7 °C 9.3 °C 1022.6 hPa SSE 15.4 km/h 31.5 km/h 58 % 0 mm
12:22 17.7 °C 9.3 °C 1022.6 hPa South 22.2 km/h 35.2 km/h 58 % 0 mm
12:27 17.4 °C 9.1 °C 1022.6 hPa SE 28.5 km/h 40.7 km/h 58 % 0 mm
12:48 17.9 °C 9.6 °C 1022.2 hPa SSE 31.5 km/h 31.5 km/h 58 % 0 mm
12:53 17.8 °C 9.4 °C 1022.2 hPa South 24.9 km/h 33.3 km/h 58 % 0 mm
12:58 17.7 °C 9.3 °C 1022.2 hPa SSW 20.9 km/h 31.5 km/h 58 % 0 mm
13:03 17.6 °C 9.2 °C 1022.2 hPa South 19.2 km/h 38.9 km/h 58 % 0 mm
13:08 18.2 °C 9.2 °C 1022.2 hPa South 20 km/h 27.8 km/h 56 % 0 mm
13:13 18.2 °C 9.2 °C 1021.9 hPa South 16.1 km/h 27.8 km/h 56 % 0 mm
13:18 18.1 °C 8.9 °C 1021.9 hPa North 15.1 km/h 24.1 km/h 55 % 0 mm
13:23 18.4 °C 8.9 °C 1021.9 hPa South 19.8 km/h 29.6 km/h 54 % 0 mm
13:28 18.9 °C 9.1 °C 1021.9 hPa SSW 25.1 km/h 29 km/h 53 % 0 mm
13:33 18.6 °C 9.1 °C 1021.9 hPa South 17.4 km/h 29.6 km/h 54 % 0 mm
13:38 19.2 °C 9.4 °C 1021.9 hPa South 17.7 km/h 25.7 km/h 53 % 0 mm
13:43 19.2 °C 9.1 °C 1021.9 hPa SSW 18.5 km/h 31.5 km/h 52 % 0 mm
13:48 18.6 °C 9.4 °C 1021.6 hPa South 13.7 km/h 24.1 km/h 55 % 0 mm
13:53 19.1 °C 9.6 °C 1021.6 hPa South 15 km/h 25.9 km/h 54 % 0 mm
13:58 19.1 °C 9.6 °C 1021.6 hPa South 16.9 km/h 22.2 km/h 54 % 0 mm
14:03 18.9 °C 9.2 °C 1021.6 hPa SSW 29 km/h 35.2 km/h 53 % 0 mm
14:08 18.8 °C 9 °C 1021.6 hPa SSE 14.3 km/h 33.3 km/h 53 % 0 mm
14:13 19.1 °C 9.3 °C 1021.6 hPa South 20.6 km/h 31.5 km/h 53 % 0 mm
14:18 19.2 °C 9.1 °C 1021.6 hPa SW 20.6 km/h 31.5 km/h 52 % 0 mm
14:23 19.4 °C 9.3 °C 1021.6 hPa South 14.8 km/h 33.3 km/h 52 % 0 mm
14:28 19.7 °C 9.6 °C 1021.6 hPa North 24.9 km/h 32.2 km/h 52 % 0 mm
14:33 19.5 °C 9.1 °C 1021.6 hPa South 22.4 km/h 31.5 km/h 51 % 0 mm
14:38 19.2 °C 9.1 °C 1021.6 hPa North 23.5 km/h 25.9 km/h 52 % 0 mm
14:43 18.9 °C 9.2 °C 1021.2 hPa SSW 25.3 km/h 33.3 km/h 53 % 0 mm
14:48 19.1 °C 9.3 °C 1021.2 hPa South 18.5 km/h 31.5 km/h 53 % 0 mm
14:53 19.2 °C 9.3 °C 1021.2 hPa South 20.9 km/h 27.8 km/h 53 % 0 mm
14:58 19.1 °C 9.6 °C 1021.2 hPa North 13.5 km/h 22.5 km/h 54 % 0 mm
15:03 19 °C 9.5 °C 1020.9 hPa South 17.1 km/h 24.1 km/h 54 % 0 mm
15:08 19.1 °C 9.6 °C 1020.9 hPa South 17.9 km/h 24.1 km/h 54 % 0 mm
15:13 19.4 °C 9.9 °C 1021.2 hPa SSE 19.6 km/h 22.5 km/h 54 % 0 mm
15:18 19.4 °C 9.8 °C 1021.2 hPa SSW 23.8 km/h 29.6 km/h 54 % 0 mm
15:23 18.9 °C 9.4 °C 1020.9 hPa SSW 23 km/h 35.2 km/h 54 % 0 mm
15:28 18.7 °C 9.5 °C 1020.9 hPa SSW 16.4 km/h 20.4 km/h 55 % 0 mm
15:33 18.9 °C 9.4 °C 1020.9 hPa SW 21.2 km/h 27.4 km/h 54 % 0 mm
15:38 19.4 °C 9.6 °C 1020.9 hPa SW 15 km/h 27.4 km/h 53 % 0 mm
15:43 19.6 °C 9.2 °C 1020.9 hPa SE 14.3 km/h 25.9 km/h 51 % 0 mm
15:48 19.7 °C 8.9 °C 1020.9 hPa SSW 20.1 km/h 29.6 km/h 50 % 0 mm
15:53 19.6 °C 9.2 °C 1020.5 hPa SSW 22 km/h 24.1 km/h 51 % 0 mm
15:59 19.6 °C 9.2 °C 1020.5 hPa SSW 19.8 km/h 35.2 km/h 51 % 0 mm
16:04 19.6 °C 8.9 °C 1020.5 hPa South 19.5 km/h 35.2 km/h 50 % 0 mm
16:09 19.7 °C 9 °C 1020.5 hPa South 14.6 km/h 25.9 km/h 50 % 0 mm
16:14 19.9 °C 9.2 °C 1020.5 hPa SSW 15.4 km/h 18.5 km/h 50 % 0 mm
16:19 19.9 °C 9.2 °C 1020.5 hPa SSW 21.1 km/h 22.2 km/h 50 % 0 mm
16:24 19.9 °C 9.4 °C 1020.5 hPa South 12.4 km/h 20.4 km/h 51 % 0 mm
16:29 19.8 °C 9.3 °C 1020.5 hPa SW 18.7 km/h 25.9 km/h 51 % 0 mm
16:34 19.7 °C 8.9 °C 1020.5 hPa South 18.7 km/h 24.1 km/h 50 % 0 mm
16:39 19.6 °C 8.9 °C 1020.5 hPa South 17.9 km/h 31.5 km/h 50 % 0 mm
16:44 20 °C 8.9 °C 1020.5 hPa South 21.4 km/h 31.5 km/h 49 % 0 mm
16:49 19.8 °C 8.8 °C 1020.5 hPa SSW 21.9 km/h 31.5 km/h 49 % 0 mm
16:54 19.9 °C 8.6 °C 1020.5 hPa South 19.8 km/h 31.5 km/h 48 % 0 mm
16:59 19.8 °C 8.1 °C 1020.5 hPa SSW 22.4 km/h 29.6 km/h 47 % 0 mm
17:04 19.8 °C 8.5 °C 1020.5 hPa South 17.2 km/h 25.9 km/h 48 % 0 mm
17:09 19.7 °C 8.7 °C 1020.5 hPa SSW 27.5 km/h 37 km/h 49 % 0 mm
17:14 19.4 °C 8.7 °C 1020.5 hPa South 16.6 km/h 29.6 km/h 50 % 0 mm
17:19 19.7 °C 8.7 °C 1020.5 hPa SSW 24.8 km/h 31.5 km/h 49 % 0 mm
17:24 19.4 °C 8.7 °C 1020.5 hPa SW 12.1 km/h 20.4 km/h 50 % 0 mm
17:29 19.2 °C 8.8 °C 1020.9 hPa SSW 22.5 km/h 31.5 km/h 51 % 0 mm
17:34 19 °C 8.9 °C 1020.9 hPa South 19.6 km/h 31.5 km/h 52 % 0 mm
17:39 19.2 °C 9.1 °C 1020.9 hPa SSE 19.3 km/h 29.6 km/h 52 % 0 mm
17:44 19.2 °C 9.1 °C 1020.9 hPa SW 27.2 km/h 35.2 km/h 52 % 0 mm
17:49 18.6 °C 9.1 °C 1020.9 hPa SW 22.4 km/h 33.3 km/h 54 % 0 mm
17:54 18.3 °C 9.4 °C 1020.9 hPa SSW 15.3 km/h 20.4 km/h 56 % 0 mm
17:59 18.3 °C 9.1 °C 1020.9 hPa SSE 22.9 km/h 37 km/h 55 % 0 mm
18:04 18.3 °C 9.1 °C 1020.9 hPa North 19.5 km/h 29.6 km/h 55 % 0 mm
18:09 18.1 °C 8.9 °C 1021.2 hPa South 25.1 km/h 31.5 km/h 55 % 0 mm
18:14 18 °C 8.8 °C 1021.2 hPa SSW 17.1 km/h 24.1 km/h 55 % 0 mm
18:19 17.9 °C 8.8 °C 1021.2 hPa SSW 20.9 km/h 33.3 km/h 55 % 0 mm
18:24 17.8 °C 8.9 °C 1021.2 hPa SSW 20.8 km/h 27.4 km/h 56 % 0 mm
18:29 17.7 °C 8.8 °C 1021.2 hPa SSW 14.6 km/h 24.1 km/h 56 % 0 mm
18:34 17.6 °C 9 °C 1021.2 hPa SSE 13.2 km/h 24.1 km/h 57 % 0 mm
18:39 17.4 °C 8.8 °C 1021.2 hPa North 11.7 km/h 16.7 km/h 57 % 0 mm
18:44 17.4 °C 8.5 °C 1021.2 hPa South 18.2 km/h 27.8 km/h 56 % 0 mm
18:48 17.3 °C 8.2 °C 1021.6 hPa South 15.9 km/h 24.1 km/h 55 % 0 mm
18:53 17.2 °C 8.4 °C 1021.6 hPa South 12.9 km/h 18.5 km/h 56 % 0 mm
18:58 16.9 °C 8.4 °C 1021.6 hPa South 15.3 km/h 31.5 km/h 57 % 0 mm
19:03 16.7 °C 8.7 °C 1021.6 hPa SSW 21.9 km/h 29.6 km/h 59 % 0 mm
19:08 16.6 °C 8.6 °C 1021.6 hPa South 11.6 km/h 18.5 km/h 59 % 0 mm
19:13 16.4 °C 8.4 °C 1021.6 hPa SSW 9.3 km/h 18.5 km/h 59 % 0 mm
19:18 16.3 °C 8.6 °C 1021.6 hPa SSW 12.2 km/h 22.2 km/h 60 % 0 mm
19:23 16.1 °C 8.6 °C 1021.6 hPa South 16.6 km/h 31.5 km/h 61 % 0 mm
19:28 16.1 °C 8.6 °C 1021.9 hPa SSW 11.6 km/h 18.5 km/h 61 % 0 mm
19:33 15.9 °C 8.4 °C 1021.6 hPa SSW 16.9 km/h 24.1 km/h 61 % 0 mm
19:38 15.9 °C 8.4 °C 1021.6 hPa South 9.2 km/h 16.7 km/h 61 % 0 mm
19:43 15.8 °C 8.6 °C 1021.6 hPa SSW 11.6 km/h 16.7 km/h 62 % 0 mm
19:48 15.9 °C 8.6 °C 1021.6 hPa South 7.7 km/h 18.5 km/h 62 % 0 mm
19:53 16 °C 8.7 °C 1021.9 hPa South 7.9 km/h 18.5 km/h 62 % 0 mm
19:58 15.9 °C 8.7 °C 1021.9 hPa SSW 13 km/h 31.5 km/h 62 % 0 mm
20:03 15.8 °C 8.6 °C 1021.9 hPa South 7.7 km/h 13 km/h 62 % 0 mm
20:08 15.7 °C 8.4 °C 1021.9 hPa South 18 km/h 22.2 km/h 62 % 0 mm
20:13 15.6 °C 8.3 °C 1021.9 hPa SSW 20.1 km/h 29 km/h 62 % 0 mm
20:18 15.4 °C 8.4 °C 1021.9 hPa South 18.3 km/h 22.2 km/h 63 % 0 mm
20:23 15.2 °C 8.2 °C 1022.2 hPa SSW 11.9 km/h 24.1 km/h 63 % 0 mm
20:28 15.2 °C 8.4 °C 1022.2 hPa South 13.5 km/h 22.2 km/h 64 % 0 mm
20:33 15.1 °C 8.3 °C 1022.2 hPa North 17.4 km/h 24.1 km/h 64 % 0 mm
20:38 15.1 °C 8.3 °C 1022.6 hPa SSW 9 km/h 20.4 km/h 64 % 0 mm
20:43 15.1 °C 8.3 °C 1022.6 hPa South 16.1 km/h 22.2 km/h 64 % 0 mm
20:48 15.2 °C 8.4 °C 1022.6 hPa South 10.1 km/h 20.4 km/h 64 % 0 mm
20:53 15.2 °C 8.7 °C 1022.6 hPa South 14 km/h 20.4 km/h 65 % 0 mm
20:58 15.2 °C 8.7 °C 1022.6 hPa South 6 km/h 13 km/h 65 % 0 mm
21:03 15.2 °C 9.1 °C 1022.6 hPa South 13.8 km/h 24.1 km/h 67 % 0 mm
21:08 15.2 °C 9.1 °C 1022.6 hPa South 15.3 km/h 25.9 km/h 67 % 0 mm
21:13 15.1 °C 9 °C 1022.6 hPa South 18 km/h 18.5 km/h 67 % 0 mm
21:18 15 °C 9.1 °C 1022.6 hPa North 19.2 km/h 25.9 km/h 68 % 0 mm
21:23 14.9 °C 9.1 °C 1022.9 hPa South 24.1 km/h 31.5 km/h 68 % 0 mm
21:28 14.8 °C 8.8 °C 1022.9 hPa SSE 12.2 km/h 18.5 km/h 67 % 0 mm
21:33 14.7 °C 8 °C 1022.9 hPa South 22 km/h 35.2 km/h 64 % 0 mm
21:38 14.6 °C 7.8 °C 1022.9 hPa SSW 17.7 km/h 22.2 km/h 64 % 0 mm
21:43 14.4 °C 7.9 °C 1022.9 hPa South 16.1 km/h 25.9 km/h 65 % 0 mm
21:48 14.3 °C 8.1 °C 1022.9 hPa SSW 12.9 km/h 22.2 km/h 66 % 0 mm
21:53 14.2 °C 7.9 °C 1022.9 hPa North 6.3 km/h 18.5 km/h 66 % 0 mm
21:58 14.1 °C 7.8 °C 1022.9 hPa South 10.8 km/h 16.7 km/h 66 % 0 mm
22:03 14.2 °C 7.9 °C 1022.9 hPa South 9.8 km/h 14.5 km/h 66 % 0 mm
22:08 14.2 °C 7.9 °C 1022.9 hPa South 12.9 km/h 16.7 km/h 66 % 0 mm
22:13 14.3 °C 8 °C 1022.9 hPa South 6.9 km/h 17.7 km/h 66 % 0 mm
22:18 14.3 °C 8.1 °C 1022.9 hPa South 4.7 km/h 11.1 km/h 66 % 0 mm
22:23 14.3 °C 8.1 °C 1022.9 hPa South 7.6 km/h 11.1 km/h 66 % 0 mm
22:28 14.3 °C 8.1 °C 1022.9 hPa South 7.2 km/h 13 km/h 66 % 0 mm
22:33 14.4 °C 8.1 °C 1022.9 hPa South 6.9 km/h 14.8 km/h 66 % 0 mm
22:38 14.4 °C 8.3 °C 1022.9 hPa South 7.9 km/h 18.5 km/h 67 % 0 mm
22:43 14.4 °C 8.6 °C 1022.9 hPa South 12.1 km/h 18.5 km/h 68 % 0 mm
22:48 14.5 °C 8.7 °C 1022.9 hPa South 10.3 km/h 25.9 km/h 68 % 0 mm
22:53 14.5 °C 8.9 °C 1022.9 hPa South 12.4 km/h 22.2 km/h 69 % 0 mm
22:58 14.4 °C 9.1 °C 1022.9 hPa SSE 17.4 km/h 18.5 km/h 70 % 0 mm
23:03 14.4 °C 9.2 °C 1022.9 hPa SSW 13.5 km/h 22.2 km/h 71 % 0 mm
23:08 14.3 °C 9.3 °C 1022.9 hPa South 7.2 km/h 11.1 km/h 72 % 0 mm
23:13 14.2 °C 9.2 °C 1022.9 hPa South 10.1 km/h 16.7 km/h 72 % 0 mm
23:18 14.2 °C 9.4 °C 1022.9 hPa South 8.2 km/h 20.4 km/h 73 % 0 mm
23:20 14.2 °C 9.4 °C 1022.9 hPa South 10.6 km/h 14.8 km/h 73 % 0 mm
23:25 14.1 °C 9.3 °C 1022.9 hPa South 9.8 km/h 14.8 km/h 73 % 0 mm
23:30 13.9 °C 9.3 °C 1022.9 hPa North 8.5 km/h 13 km/h 74 % 0 mm
23:35 13.8 °C 9.2 °C 1022.9 hPa South 10.1 km/h 13 km/h 74 % 0 mm
23:40 13.6 °C 9.3 °C 1022.9 hPa South 12.4 km/h 14.8 km/h 75 % 0 mm
23:45 13.4 °C 9.1 °C 1022.9 hPa South 6.4 km/h 9.7 km/h 75 % 0 mm
23:50 13.3 °C 9.1 °C 1022.6 hPa South 10 km/h 16.7 km/h 76 % 0 mm
23:55 13.2 °C 9 °C 1022.6 hPa South 7.9 km/h 14.8 km/h 76 % 0 mm
Ararat Weather
Compliments of Weather Underground - 2.25 mb
Click here to send mail.


ABOUT

Live weather data from Ararat, Victoria, Australia, 3377
Data uploaded from Cumulus every 5 minutes to Weather Underground.
This site then downloads the raw data for formatting and display.
Metric and imperial data can be displayed. Graphs and historical data available.
Includes Sun and Moon times and rain image live from BOM.

Check out Ararat Weather on Facebook, Twitter and Google +

Help support ongoing costs by checking out the ads





Follow @AraratWeather